sensor_id;sensor_type;location;lat;lon;timestamp;P1;durP1;ratioP1;P2;durP2;ratioP2
7997;SDS011;4044;49.814;7.828;2023-06-22T00:02:14;6.68;;;6.13;;
7997;SDS011;4044;49.814;7.828;2023-06-22T00:04:40;7.43;;;6.72;;
7997;SDS011;4044;49.814;7.828;2023-06-22T00:07:05;7.78;;;7.07;;
7997;SDS011;4044;49.814;7.828;2023-06-22T00:09:31;7.93;;;7.28;;
7997;SDS011;4044;49.814;7.828;2023-06-22T00:11:57;7.97;;;7.18;;
7997;SDS011;4044;49.814;7.828;2023-06-22T00:14:23;7.95;;;7.35;;
7997;SDS011;4044;49.814;7.828;2023-06-22T00:16:48;8.18;;;7.38;;
7997;SDS011;4044;49.814;7.828;2023-06-22T00:19:17;9.32;;;7.90;;
7997;SDS011;4044;49.814;7.828;2023-06-22T00:21:44;9.27;;;8.43;;
7997;SDS011;4044;49.814;7.828;2023-06-22T00:24:12;9.43;;;8.73;;
7997;SDS011;4044;49.814;7.828;2023-06-22T00:26:37;9.82;;;8.98;;
7997;SDS011;4044;49.814;7.828;2023-06-22T00:29:03;10.30;;;8.98;;
7997;SDS011;4044;49.814;7.828;2023-06-22T00:31:29;9.90;;;9.00;;
7997;SDS011;4044;49.814;7.828;2023-06-22T00:33:54;10.00;;;8.98;;
7997;SDS011;4044;49.814;7.828;2023-06-22T00:36:20;10.18;;;9.27;;
7997;SDS011;4044;49.814;7.828;2023-06-22T00:38:45;10.10;;;9.27;;
7997;SDS011;4044;49.814;7.828;2023-06-22T00:41:11;9.98;;;9.18;;
7997;SDS011;4044;49.814;7.828;2023-06-22T00:43:36;10.48;;;9.57;;
7997;SDS011;4044;49.814;7.828;2023-06-22T00:46:02;10.10;;;9.20;;
7997;SDS011;4044;49.814;7.828;2023-06-22T00:48:28;11.57;;;10.57;;
7997;SDS011;4044;49.814;7.828;2023-06-22T00:50:53;11.27;;;10.27;;
7997;SDS011;4044;49.814;7.828;2023-06-22T00:53:20;12.55;;;11.40;;
7997;SDS011;4044;49.814;7.828;2023-06-22T00:55:46;12.52;;;11.32;;
7997;SDS011;4044;49.814;7.828;2023-06-22T00:58:12;13.45;;;12.35;;
7997;SDS011;4044;49.814;7.828;2023-06-22T01:00:41;12.52;;;11.52;;
7997;SDS011;4044;49.814;7.828;2023-06-22T01:03:07;13.45;;;12.15;;
7997;SDS011;4044;49.814;7.828;2023-06-22T01:05:35;12.82;;;11.65;;
7997;SDS011;4044;49.814;7.828;2023-06-22T01:11:01;13.70;;;12.60;;
7997;SDS011;4044;49.814;7.828;2023-06-22T01:16:44;14.23;;;12.98;;
7997;SDS011;4044;49.814;7.828;2023-06-22T01:22:01;14.23;;;13.02;;
7997;SDS011;4044;49.814;7.828;2023-06-22T01:27:11;15.00;;;13.65;;
7997;SDS011;4044;49.814;7.828;2023-06-22T01:29:52;14.68;;;13.50;;
7997;SDS011;4044;49.814;7.828;2023-06-22T01:32:29;15.73;;;14.32;;
7997;SDS011;4044;49.814;7.828;2023-06-22T01:35:00;16.33;;;14.73;;
7997;SDS011;4044;49.814;7.828;2023-06-22T01:37:28;15.02;;;13.70;;
7997;SDS011;4044;49.814;7.828;2023-06-22T01:39:54;15.23;;;13.82;;
7997;SDS011;4044;49.814;7.828;2023-06-22T01:42:23;14.90;;;13.23;;
7997;SDS011;4044;49.814;7.828;2023-06-22T01:44:49;14.70;;;13.23;;
7997;SDS011;4044;49.814;7.828;2023-06-22T01:47:15;14.57;;;13.27;;
7997;SDS011;4044;49.814;7.828;2023-06-22T01:49:42;15.35;;;13.95;;
7997;SDS011;4044;49.814;7.828;2023-06-22T01:52:08;15.07;;;13.60;;
7997;SDS011;4044;49.814;7.828;2023-06-22T01:54:34;15.30;;;13.88;;
7997;SDS011;4044;49.814;7.828;2023-06-22T01:57:02;15.55;;;14.10;;
7997;SDS011;4044;49.814;7.828;2023-06-22T02:02:23;15.82;;;14.32;;
7997;SDS011;4044;49.814;7.828;2023-06-22T02:04:58;16.77;;;15.38;;
7997;SDS011;4044;49.814;7.828;2023-06-22T02:07:36;16.10;;;14.15;;
7997;SDS011;4044;49.814;7.828;2023-06-22T02:10:07;15.65;;;14.07;;
7997;SDS011;4044;49.814;7.828;2023-06-22T02:12:37;17.17;;;15.57;;
7997;SDS011;4044;49.814;7.828;2023-06-22T02:15:03;15.55;;;14.25;;
7997;SDS011;4044;49.814;7.828;2023-06-22T02:17:30;15.68;;;14.32;;
7997;SDS011;4044;49.814;7.828;2023-06-22T02:19:58;17.65;;;15.82;;
7997;SDS011;4044;49.814;7.828;2023-06-22T02:22:23;15.55;;;14.15;;
7997;SDS011;4044;49.814;7.828;2023-06-22T02:24:49;16.15;;;14.60;;
7997;SDS011;4044;49.814;7.828;2023-06-22T02:27:14;15.77;;;14.38;;
7997;SDS011;4044;49.814;7.828;2023-06-22T02:29:40;16.08;;;14.50;;
7997;SDS011;4044;49.814;7.828;2023-06-22T02:32:05;15.48;;;14.18;;
7997;SDS011;4044;49.814;7.828;2023-06-22T02:34:31;16.17;;;14.57;;
7997;SDS011;4044;49.814;7.828;2023-06-22T02:36:58;16.13;;;14.63;;
7997;SDS011;4044;49.814;7.828;2023-06-22T02:39:25;15.77;;;14.30;;
7997;SDS011;4044;49.814;7.828;2023-06-22T02:41:51;16.58;;;15.02;;
7997;SDS011;4044;49.814;7.828;2023-06-22T02:44:18;16.40;;;14.90;;
7997;SDS011;4044;49.814;7.828;2023-06-22T02:46:44;17.00;;;15.32;;
7997;SDS011;4044;49.814;7.828;2023-06-22T02:49:10;16.20;;;14.80;;
7997;SDS011;4044;49.814;7.828;2023-06-22T02:51:38;16.65;;;15.00;;
7997;SDS011;4044;49.814;7.828;2023-06-22T02:54:05;17.05;;;15.30;;
7997;SDS011;4044;49.814;7.828;2023-06-22T02:56:31;16.10;;;14.60;;
7997;SDS011;4044;49.814;7.828;2023-06-22T02:58:56;16.05;;;14.60;;
7997;SDS011;4044;49.814;7.828;2023-06-22T03:01:26;15.45;;;14.00;;
7997;SDS011;4044;49.814;7.828;2023-06-22T03:03:52;16.42;;;14.93;;
7997;SDS011;4044;49.814;7.828;2023-06-22T03:06:21;15.30;;;13.73;;
7997;SDS011;4044;49.814;7.828;2023-06-22T03:08:48;15.85;;;14.27;;
7997;SDS011;4044;49.814;7.828;2023-06-22T03:11:16;14.07;;;12.88;;
7997;SDS011;4044;49.814;7.828;2023-06-22T03:13:42;16.58;;;15.10;;
7997;SDS011;4044;49.814;7.828;2023-06-22T03:16:08;15.32;;;13.82;;
7997;SDS011;4044;49.814;7.828;2023-06-22T03:18:33;16.90;;;14.90;;
7997;SDS011;4044;49.814;7.828;2023-06-22T03:20:59;16.88;;;14.48;;
7997;SDS011;4044;49.814;7.828;2023-06-22T03:23:27;15.77;;;14.20;;
7997;SDS011;4044;49.814;7.828;2023-06-22T03:25:52;14.80;;;13.48;;
7997;SDS011;4044;49.814;7.828;2023-06-22T03:28:20;16.20;;;14.63;;
7997;SDS011;4044;49.814;7.828;2023-06-22T03:30:46;16.63;;;14.60;;
7997;SDS011;4044;49.814;7.828;2023-06-22T03:33:12;16.15;;;14.55;;
7997;SDS011;4044;49.814;7.828;2023-06-22T03:35:37;15.60;;;14.27;;
7997;SDS011;4044;49.814;7.828;2023-06-22T03:38:03;17.48;;;15.88;;
7997;SDS011;4044;49.814;7.828;2023-06-22T03:40:29;17.38;;;15.60;;
7997;SDS011;4044;49.814;7.828;2023-06-22T03:42:55;16.60;;;14.93;;
7997;SDS011;4044;49.814;7.828;2023-06-22T03:45:20;17.85;;;15.63;;
7997;SDS011;4044;49.814;7.828;2023-06-22T03:47:46;25.42;;;15.23;;
7997;SDS011;4044;49.814;7.828;2023-06-22T03:50:11;20.27;;;15.07;;
7997;SDS011;4044;49.814;7.828;2023-06-22T03:52:37;20.90;;;14.02;;
7997;SDS011;4044;49.814;7.828;2023-06-22T03:55:02;18.38;;;14.90;;
7997;SDS011;4044;49.814;7.828;2023-06-22T03:57:28;17.73;;;15.88;;
7997;SDS011;4044;49.814;7.828;2023-06-22T03:59:56;15.80;;;14.30;;
7997;SDS011;4044;49.814;7.828;2023-06-22T04:02:22;17.83;;;16.13;;
7997;SDS011;4044;49.814;7.828;2023-06-22T04:04:48;18.02;;;16.27;;
7997;SDS011;4044;49.814;7.828;2023-06-22T04:07:14;31.98;;;16.60;;
7997;SDS011;4044;49.814;7.828;2023-06-22T04:09:39;42.47;;;16.60;;
7997;SDS011;4044;49.814;7.828;2023-06-22T04:12:05;39.90;;;17.42;;
7997;SDS011;4044;49.814;7.828;2023-06-22T04:14:31;32.53;;;16.13;;
7997;SDS011;4044;49.814;7.828;2023-06-22T04:16:57;28.90;;;16.30;;
7997;SDS011;4044;49.814;7.828;2023-06-22T04:19:23;27.45;;;18.08;;
7997;SDS011;4044;49.814;7.828;2023-06-22T04:21:48;27.73;;;17.30;;
7997;SDS011;4044;49.814;7.828;2023-06-22T04:24:14;20.70;;;16.60;;
7997;SDS011;4044;49.814;7.828;2023-06-22T04:26:40;23.70;;;16.08;;
7997;SDS011;4044;49.814;7.828;2023-06-22T04:29:07;38.00;;;18.33;;
7997;SDS011;4044;49.814;7.828;2023-06-22T04:31:35;39.05;;;18.02;;
7997;SDS011;4044;49.814;7.828;2023-06-22T04:34:02;27.52;;;16.80;;
7997;SDS011;4044;49.814;7.828;2023-06-22T04:36:38;30.80;;;16.45;;
7997;SDS011;4044;49.814;7.828;2023-06-22T04:39:06;29.55;;;16.00;;
7997;SDS011;4044;49.814;7.828;2023-06-22T04:41:34;21.10;;;17.13;;
7997;SDS011;4044;49.814;7.828;2023-06-22T04:44:09;31.88;;;17.58;;
7997;SDS011;4044;49.814;7.828;2023-06-22T04:46:35;42.35;;;18.85;;
7997;SDS011;4044;49.814;7.828;2023-06-22T04:49:03;51.17;;;18.48;;
7997;SDS011;4044;49.814;7.828;2023-06-22T04:51:36;38.75;;;17.42;;
7997;SDS011;4044;49.814;7.828;2023-06-22T04:54:03;32.55;;;19.52;;
7997;SDS011;4044;49.814;7.828;2023-06-22T04:56:30;32.55;;;18.75;;
7997;SDS011;4044;49.814;7.828;2023-06-22T04:58:56;33.78;;;19.25;;
7997;SDS011;4044;49.814;7.828;2023-06-22T05:01:22;44.08;;;19.08;;
7997;SDS011;4044;49.814;7.828;2023-06-22T05:03:48;45.80;;;19.20;;
7997;SDS011;4044;49.814;7.828;2023-06-22T05:06:14;35.88;;;19.15;;
7997;SDS011;4044;49.814;7.828;2023-06-22T05:08:40;40.08;;;19.52;;
7997;SDS011;4044;49.814;7.828;2023-06-22T05:11:06;30.90;;;19.05;;
7997;SDS011;4044;49.814;7.828;2023-06-22T05:13:31;26.70;;;19.42;;
7997;SDS011;4044;49.814;7.828;2023-06-22T05:15:57;21.10;;;18.05;;
7997;SDS011;4044;49.814;7.828;2023-06-22T05:18:29;22.27;;;19.02;;
7997;SDS011;4044;49.814;7.828;2023-06-22T05:20:55;19.75;;;17.20;;
7997;SDS011;4044;49.814;7.828;2023-06-22T05:23:21;21.02;;;18.83;;
7997;SDS011;4044;49.814;7.828;2023-06-22T05:25:47;21.73;;;18.98;;
7997;SDS011;4044;49.814;7.828;2023-06-22T05:28:12;22.92;;;19.25;;
7997;SDS011;4044;49.814;7.828;2023-06-22T05:30:38;22.00;;;18.75;;
7997;SDS011;4044;49.814;7.828;2023-06-22T05:33:04;21.25;;;18.92;;
7997;SDS011;4044;49.814;7.828;2023-06-22T05:35:30;21.85;;;19.30;;
7997;SDS011;4044;49.814;7.828;2023-06-22T05:37:56;21.65;;;18.83;;
7997;SDS011;4044;49.814;7.828;2023-06-22T05:40:21;19.90;;;18.15;;
7997;SDS011;4044;49.814;7.828;2023-06-22T05:42:47;19.73;;;17.83;;
7997;SDS011;4044;49.814;7.828;2023-06-22T05:45:12;20.42;;;18.58;;
7997;SDS011;4044;49.814;7.828;2023-06-22T05:47:38;22.30;;;20.20;;
7997;SDS011;4044;49.814;7.828;2023-06-22T05:50:04;22.02;;;19.83;;
7997;SDS011;4044;49.814;7.828;2023-06-22T05:52:33;23.45;;;21.10;;
7997;SDS011;4044;49.814;7.828;2023-06-22T05:54:58;21.17;;;19.23;;
7997;SDS011;4044;49.814;7.828;2023-06-22T05:57:24;19.88;;;17.98;;
7997;SDS011;4044;49.814;7.828;2023-06-22T05:59:49;19.35;;;17.35;;
7997;SDS011;4044;49.814;7.828;2023-06-22T06:02:15;21.27;;;19.17;;
7997;SDS011;4044;49.814;7.828;2023-06-22T06:04:40;19.05;;;17.10;;
7997;SDS011;4044;49.814;7.828;2023-06-22T06:07:06;17.52;;;15.93;;
7997;SDS011;4044;49.814;7.828;2023-06-22T06:09:32;17.40;;;15.63;;
7997;SDS011;4044;49.814;7.828;2023-06-22T06:11:57;17.02;;;15.55;;
7997;SDS011;4044;49.814;7.828;2023-06-22T06:14:23;17.48;;;15.88;;
7997;SDS011;4044;49.814;7.828;2023-06-22T06:16:49;15.30;;;13.80;;
7997;SDS011;4044;49.814;7.828;2023-06-22T06:19:14;17.67;;;15.98;;
7997;SDS011;4044;49.814;7.828;2023-06-22T06:21:40;16.95;;;15.40;;
7997;SDS011;4044;49.814;7.828;2023-06-22T06:24:05;16.58;;;14.93;;
7997;SDS011;4044;49.814;7.828;2023-06-22T06:26:31;16.95;;;15.35;;
7997;SDS011;4044;49.814;7.828;2023-06-22T06:28:58;16.50;;;15.00;;
7997;SDS011;4044;49.814;7.828;2023-06-22T06:31:25;17.95;;;16.15;;
7997;SDS011;4044;49.814;7.828;2023-06-22T06:33:54;17.70;;;15.93;;
7997;SDS011;4044;49.814;7.828;2023-06-22T06:36:20;18.42;;;16.65;;
7997;SDS011;4044;49.814;7.828;2023-06-22T06:38:46;17.08;;;15.55;;
7997;SDS011;4044;49.814;7.828;2023-06-22T06:41:15;16.88;;;15.15;;
7997;SDS011;4044;49.814;7.828;2023-06-22T06:43:41;16.95;;;15.48;;
7997;SDS011;4044;49.814;7.828;2023-06-22T06:46:10;17.35;;;15.10;;
7997;SDS011;4044;49.814;7.828;2023-06-22T06:48:35;16.73;;;15.10;;
7997;SDS011;4044;49.814;7.828;2023-06-22T06:51:01;16.67;;;15.18;;
7997;SDS011;4044;49.814;7.828;2023-06-22T06:53:27;17.05;;;15.25;;
7997;SDS011;4044;49.814;7.828;2023-06-22T06:55:53;17.02;;;15.35;;
7997;SDS011;4044;49.814;7.828;2023-06-22T06:58:19;16.00;;;14.55;;
7997;SDS011;4044;49.814;7.828;2023-06-22T07:00:44;14.90;;;13.48;;
7997;SDS011;4044;49.814;7.828;2023-06-22T07:03:10;14.15;;;13.05;;
7997;SDS011;4044;49.814;7.828;2023-06-22T07:05:36;14.63;;;13.32;;
7997;SDS011;4044;49.814;7.828;2023-06-22T07:08:01;13.75;;;12.60;;
7997;SDS011;4044;49.814;7.828;2023-06-22T07:10:28;15.05;;;13.70;;
7997;SDS011;4044;49.814;7.828;2023-06-22T07:12:54;14.80;;;13.50;;
7997;SDS011;4044;49.814;7.828;2023-06-22T07:15:20;15.20;;;13.90;;
7997;SDS011;4044;49.814;7.828;2023-06-22T07:17:45;14.93;;;13.50;;
7997;SDS011;4044;49.814;7.828;2023-06-22T07:20:11;14.32;;;13.13;;
7997;SDS011;4044;49.814;7.828;2023-06-22T07:22:41;14.35;;;13.05;;
7997;SDS011;4044;49.814;7.828;2023-06-22T07:25:08;13.70;;;12.40;;
7997;SDS011;4044;49.814;7.828;2023-06-22T07:27:38;13.02;;;11.93;;
7997;SDS011;4044;49.814;7.828;2023-06-22T07:30:08;14.60;;;13.10;;
7997;SDS011;4044;49.814;7.828;2023-06-22T07:32:34;13.95;;;12.55;;
7997;SDS011;4044;49.814;7.828;2023-06-22T07:35:00;13.38;;;12.18;;
7997;SDS011;4044;49.814;7.828;2023-06-22T07:37:26;13.25;;;12.00;;
7997;SDS011;4044;49.814;7.828;2023-06-22T07:39:53;12.48;;;11.48;;
7997;SDS011;4044;49.814;7.828;2023-06-22T07:42:23;13.50;;;12.15;;
7997;SDS011;4044;49.814;7.828;2023-06-22T07:44:51;12.02;;;10.98;;
7997;SDS011;4044;49.814;7.828;2023-06-22T07:47:17;12.35;;;11.25;;
7997;SDS011;4044;49.814;7.828;2023-06-22T07:49:44;12.90;;;11.75;;
7997;SDS011;4044;49.814;7.828;2023-06-22T07:52:10;11.15;;;10.15;;
7997;SDS011;4044;49.814;7.828;2023-06-22T07:54:36;12.60;;;11.32;;
7997;SDS011;4044;49.814;7.828;2023-06-22T07:57:02;11.88;;;10.73;;
7997;SDS011;4044;49.814;7.828;2023-06-22T07:59:28;11.35;;;10.18;;
7997;SDS011;4044;49.814;7.828;2023-06-22T08:01:54;11.75;;;10.82;;
7997;SDS011;4044;49.814;7.828;2023-06-22T08:04:20;12.02;;;11.05;;
7997;SDS011;4044;49.814;7.828;2023-06-22T08:06:45;12.00;;;10.90;;
7997;SDS011;4044;49.814;7.828;2023-06-22T08:09:11;11.70;;;10.73;;
7997;SDS011;4044;49.814;7.828;2023-06-22T08:11:37;15.52;;;11.40;;
7997;SDS011;4044;49.814;7.828;2023-06-22T08:14:02;11.95;;;10.85;;
7997;SDS011;4044;49.814;7.828;2023-06-22T08:16:28;10.82;;;9.82;;
7997;SDS011;4044;49.814;7.828;2023-06-22T08:18:54;10.93;;;9.95;;
7997;SDS011;4044;49.814;7.828;2023-06-22T08:21:19;10.77;;;9.88;;
7997;SDS011;4044;49.814;7.828;2023-06-22T08:23:45;10.18;;;9.38;;
7997;SDS011;4044;49.814;7.828;2023-06-22T08:26:10;10.10;;;9.10;;
7997;SDS011;4044;49.814;7.828;2023-06-22T08:28:36;10.75;;;9.73;;
7997;SDS011;4044;49.814;7.828;2023-06-22T08:31:02;12.45;;;11.25;;
7997;SDS011;4044;49.814;7.828;2023-06-22T08:33:28;10.15;;;9.30;;
7997;SDS011;4044;49.814;7.828;2023-06-22T08:35:55;10.88;;;9.88;;
7997;SDS011;4044;49.814;7.828;2023-06-22T08:38:21;10.10;;;9.30;;
7997;SDS011;4044;49.814;7.828;2023-06-22T08:40:46;9.00;;;8.30;;
7997;SDS011;4044;49.814;7.828;2023-06-22T08:43:12;10.50;;;9.60;;
7997;SDS011;4044;49.814;7.828;2023-06-22T08:45:38;9.95;;;9.15;;
7997;SDS011;4044;49.814;7.828;2023-06-22T08:48:04;9.50;;;8.80;;
7997;SDS011;4044;49.814;7.828;2023-06-22T08:50:29;9.50;;;8.70;;
7997;SDS011;4044;49.814;7.828;2023-06-22T08:52:55;9.13;;;8.32;;
7997;SDS011;4044;49.814;7.828;2023-06-22T08:55:21;9.43;;;8.63;;
7997;SDS011;4044;49.814;7.828;2023-06-22T08:57:46;9.40;;;8.60;;
7997;SDS011;4044;49.814;7.828;2023-06-22T09:00:12;9.30;;;8.45;;
7997;SDS011;4044;49.814;7.828;2023-06-22T09:02:42;8.98;;;8.18;;
7997;SDS011;4044;49.814;7.828;2023-06-22T09:05:09;8.95;;;8.15;;
7997;SDS011;4044;49.814;7.828;2023-06-22T09:07:34;9.18;;;8.27;;
7997;SDS011;4044;49.814;7.828;2023-06-22T09:10:00;8.23;;;7.63;;
7997;SDS011;4044;49.814;7.828;2023-06-22T09:12:25;8.32;;;7.53;;
7997;SDS011;4044;49.814;7.828;2023-06-22T09:14:52;8.50;;;7.90;;
7997;SDS011;4044;49.814;7.828;2023-06-22T09:17:18;7.85;;;7.22;;
7997;SDS011;4044;49.814;7.828;2023-06-22T09:19:44;9.48;;;8.50;;
7997;SDS011;4044;49.814;7.828;2023-06-22T09:22:09;9.45;;;8.60;;
7997;SDS011;4044;49.814;7.828;2023-06-22T09:24:35;9.05;;;8.30;;
7997;SDS011;4044;49.814;7.828;2023-06-22T09:27:00;8.80;;;8.00;;
7997;SDS011;4044;49.814;7.828;2023-06-22T09:29:26;9.40;;;8.60;;
7997;SDS011;4044;49.814;7.828;2023-06-22T09:31:51;8.38;;;7.55;;
7997;SDS011;4044;49.814;7.828;2023-06-22T09:34:18;9.07;;;8.48;;
7997;SDS011;4044;49.814;7.828;2023-06-22T09:36:45;9.38;;;8.57;;
7997;SDS011;4044;49.814;7.828;2023-06-22T09:39:11;10.73;;;9.73;;
7997;SDS011;4044;49.814;7.828;2023-06-22T09:41:36;9.30;;;8.40;;
7997;SDS011;4044;49.814;7.828;2023-06-22T09:44:02;9.68;;;8.90;;
7997;SDS011;4044;49.814;7.828;2023-06-22T09:46:28;9.27;;;8.50;;
7997;SDS011;4044;49.814;7.828;2023-06-22T09:48:53;9.48;;;8.75;;
7997;SDS011;4044;49.814;7.828;2023-06-22T09:51:19;10.38;;;9.48;;
7997;SDS011;4044;49.814;7.828;2023-06-22T09:53:46;9.25;;;8.55;;
7997;SDS011;4044;49.814;7.828;2023-06-22T09:56:12;9.77;;;9.07;;
7997;SDS011;4044;49.814;7.828;2023-06-22T09:58:40;9.80;;;9.10;;
7997;SDS011;4044;49.814;7.828;2023-06-22T10:01:07;10.13;;;9.40;;
7997;SDS011;4044;49.814;7.828;2023-06-22T10:03:33;10.18;;;9.18;;
7997;SDS011;4044;49.814;7.828;2023-06-22T10:05:58;10.63;;;9.73;;
7997;SDS011;4044;49.814;7.828;2023-06-22T10:08:24;10.32;;;9.43;;
7997;SDS011;4044;49.814;7.828;2023-06-22T10:10:49;10.30;;;9.40;;
7997;SDS011;4044;49.814;7.828;2023-06-22T10:13:15;10.65;;;9.75;;
7997;SDS011;4044;49.814;7.828;2023-06-22T10:15:41;11.18;;;10.07;;
7997;SDS011;4044;49.814;7.828;2023-06-22T10:18:07;11.68;;;10.05;;
7997;SDS011;4044;49.814;7.828;2023-06-22T10:20:32;10.55;;;9.55;;
7997;SDS011;4044;49.814;7.828;2023-06-22T10:22:58;10.15;;;9.35;;
7997;SDS011;4044;49.814;7.828;2023-06-22T10:25:24;10.13;;;9.38;;
7997;SDS011;4044;49.814;7.828;2023-06-22T10:27:49;10.10;;;9.20;;
7997;SDS011;4044;49.814;7.828;2023-06-22T10:30:15;12.95;;;9.95;;
7997;SDS011;4044;49.814;7.828;2023-06-22T10:32:41;10.68;;;9.57;;
7997;SDS011;4044;49.814;7.828;2023-06-22T10:35:10;9.90;;;8.93;;
7997;SDS011;4044;49.814;7.828;2023-06-22T10:37:38;8.80;;;8.10;;
7997;SDS011;4044;49.814;7.828;2023-06-22T10:40:04;8.43;;;7.75;;
7997;SDS011;4044;49.814;7.828;2023-06-22T10:42:30;9.32;;;8.38;;
7997;SDS011;4044;49.814;7.828;2023-06-22T10:44:56;8.98;;;8.07;;
7997;SDS011;4044;49.814;7.828;2023-06-22T10:47:21;10.77;;;7.25;;
7997;SDS011;4044;49.814;7.828;2023-06-22T10:49:47;8.60;;;7.82;;
7997;SDS011;4044;49.814;7.828;2023-06-22T10:52:12;8.50;;;7.57;;
7997;SDS011;4044;49.814;7.828;2023-06-22T10:54:38;9.45;;;8.45;;
7997;SDS011;4044;49.814;7.828;2023-06-22T10:57:04;8.52;;;7.70;;
7997;SDS011;4044;49.814;7.828;2023-06-22T10:59:29;8.45;;;7.68;;
7997;SDS011;4044;49.814;7.828;2023-06-22T11:01:55;8.38;;;7.68;;
7997;SDS011;4044;49.814;7.828;2023-06-22T11:04:21;8.77;;;7.97;;
7997;SDS011;4044;49.814;7.828;2023-06-22T11:06:48;8.75;;;7.93;;
7997;SDS011;4044;49.814;7.828;2023-06-22T11:09:14;8.20;;;7.53;;
7997;SDS011;4044;49.814;7.828;2023-06-22T11:11:45;9.10;;;8.20;;
7997;SDS011;4044;49.814;7.828;2023-06-22T11:14:11;8.80;;;8.02;;
7997;SDS011;4044;49.814;7.828;2023-06-22T11:16:37;9.20;;;8.30;;
7997;SDS011;4044;49.814;7.828;2023-06-22T11:19:04;9.02;;;8.07;;
7997;SDS011;4044;49.814;7.828;2023-06-22T11:21:30;8.88;;;7.70;;
7997;SDS011;4044;49.814;7.828;2023-06-22T11:23:56;9.52;;;8.07;;
7997;SDS011;4044;49.814;7.828;2023-06-22T11:26:22;9.82;;;8.35;;
7997;SDS011;4044;49.814;7.828;2023-06-22T11:28:47;8.10;;;7.32;;
7997;SDS011;4044;49.814;7.828;2023-06-22T11:31:13;8.27;;;7.53;;
7997;SDS011;4044;49.814;7.828;2023-06-22T11:33:39;11.50;;;8.38;;
7997;SDS011;4044;49.814;7.828;2023-06-22T11:36:05;8.43;;;7.63;;
7997;SDS011;4044;49.814;7.828;2023-06-22T11:38:30;7.72;;;7.03;;
7997;SDS011;4044;49.814;7.828;2023-06-22T11:40:57;8.27;;;7.22;;
7997;SDS011;4044;49.814;7.828;2023-06-22T11:43:23;8.73;;;7.28;;
7997;SDS011;4044;49.814;7.828;2023-06-22T11:45:49;8.40;;;7.43;;
7997;SDS011;4044;49.814;7.828;2023-06-22T11:48:15;8.32;;;7.43;;
7997;SDS011;4044;49.814;7.828;2023-06-22T11:50:41;9.90;;;7.35;;
7997;SDS011;4044;49.814;7.828;2023-06-22T11:53:06;8.85;;;7.22;;
7997;SDS011;4044;49.814;7.828;2023-06-22T11:55:32;8.00;;;7.30;;
7997;SDS011;4044;49.814;7.828;2023-06-22T11:57:57;8.20;;;7.35;;
7997;SDS011;4044;49.814;7.828;2023-06-22T12:00:29;9.77;;;7.72;;
7997;SDS011;4044;49.814;7.828;2023-06-22T12:02:54;8.38;;;7.43;;
7997;SDS011;4044;49.814;7.828;2023-06-22T12:05:21;9.50;;;7.80;;
7997;SDS011;4044;49.814;7.828;2023-06-22T12:07:47;8.82;;;7.80;;
7997;SDS011;4044;49.814;7.828;2023-06-22T12:10:13;8.07;;;7.35;;
7997;SDS011;4044;49.814;7.828;2023-06-22T12:12:39;7.55;;;6.95;;
7997;SDS011;4044;49.814;7.828;2023-06-22T12:15:05;8.18;;;7.47;;
7997;SDS011;4044;49.814;7.828;2023-06-22T12:17:31;8.90;;;7.68;;
7997;SDS011;4044;49.814;7.828;2023-06-22T12:19:57;8.45;;;7.22;;
7997;SDS011;4044;49.814;7.828;2023-06-22T12:22:23;7.97;;;6.75;;
7997;SDS011;4044;49.814;7.828;2023-06-22T12:24:48;8.68;;;7.78;;
7997;SDS011;4044;49.814;7.828;2023-06-22T12:27:14;9.63;;;7.80;;
7997;SDS011;4044;49.814;7.828;2023-06-22T12:29:42;9.05;;;7.07;;
7997;SDS011;4044;49.814;7.828;2023-06-22T12:32:07;7.90;;;7.20;;
7997;SDS011;4044;49.814;7.828;2023-06-22T12:34:33;8.68;;;7.10;;
7997;SDS011;4044;49.814;7.828;2023-06-22T12:36:58;7.90;;;7.07;;
7997;SDS011;4044;49.814;7.828;2023-06-22T12:39:24;7.20;;;6.50;;
7997;SDS011;4044;49.814;7.828;2023-06-22T12:41:49;7.60;;;6.90;;
7997;SDS011;4044;49.814;7.828;2023-06-22T12:44:15;8.68;;;6.53;;
7997;SDS011;4044;49.814;7.828;2023-06-22T12:46:40;11.27;;;7.22;;
7997;SDS011;4044;49.814;7.828;2023-06-22T12:49:06;8.35;;;7.45;;
7997;SDS011;4044;49.814;7.828;2023-06-22T12:51:31;8.80;;;6.90;;
7997;SDS011;4044;49.814;7.828;2023-06-22T12:53:57;9.75;;;7.32;;
7997;SDS011;4044;49.814;7.828;2023-06-22T12:56:22;8.75;;;6.72;;
7997;SDS011;4044;49.814;7.828;2023-06-22T12:58:48;9.65;;;7.07;;
7997;SDS011;4044;49.814;7.828;2023-06-22T13:01:13;8.95;;;6.95;;
7997;SDS011;4044;49.814;7.828;2023-06-22T13:03:39;7.13;;;6.43;;
7997;SDS011;4044;49.814;7.828;2023-06-22T13:06:05;9.10;;;6.60;;
7997;SDS011;4044;49.814;7.828;2023-06-22T13:08:30;7.30;;;6.10;;
7997;SDS011;4044;49.814;7.828;2023-06-22T13:10:56;7.13;;;6.40;;
7997;SDS011;4044;49.814;7.828;2023-06-22T13:13:25;10.48;;;7.32;;
7997;SDS011;4044;49.814;7.828;2023-06-22T13:15:52;8.73;;;6.40;;
7997;SDS011;4044;49.814;7.828;2023-06-22T13:18:18;6.97;;;6.35;;
7997;SDS011;4044;49.814;7.828;2023-06-22T13:20:44;8.40;;;6.45;;
7997;SDS011;4044;49.814;7.828;2023-06-22T13:23:10;11.15;;;6.07;;
7997;SDS011;4044;49.814;7.828;2023-06-22T13:25:36;9.88;;;6.90;;
7997;SDS011;4044;49.814;7.828;2023-06-22T13:28:02;9.35;;;6.03;;
7997;SDS011;4044;49.814;7.828;2023-06-22T13:30:27;9.15;;;6.07;;
7997;SDS011;4044;49.814;7.828;2023-06-22T13:32:53;9.93;;;6.00;;
7997;SDS011;4044;49.814;7.828;2023-06-22T13:35:18;9.77;;;5.55;;
7997;SDS011;4044;49.814;7.828;2023-06-22T13:37:44;9.63;;;5.60;;
7997;SDS011;4044;49.814;7.828;2023-06-22T13:40:10;14.43;;;6.15;;
7997;SDS011;4044;49.814;7.828;2023-06-22T13:42:35;13.60;;;5.60;;
7997;SDS011;4044;49.814;7.828;2023-06-22T13:45:01;9.35;;;6.32;;
7997;SDS011;4044;49.814;7.828;2023-06-22T13:47:29;10.55;;;6.65;;
7997;SDS011;4044;49.814;7.828;2023-06-22T13:49:55;8.00;;;6.45;;
7997;SDS011;4044;49.814;7.828;2023-06-22T13:52:20;8.90;;;6.63;;
7997;SDS011;4044;49.814;7.828;2023-06-22T13:54:46;9.48;;;6.45;;
7997;SDS011;4044;49.814;7.828;2023-06-22T13:57:11;11.07;;;6.00;;
7997;SDS011;4044;49.814;7.828;2023-06-22T13:59:37;10.07;;;5.35;;
7997;SDS011;4044;49.814;7.828;2023-06-22T14:02:02;12.30;;;5.57;;
7997;SDS011;4044;49.814;7.828;2023-06-22T14:04:28;12.23;;;5.50;;
7997;SDS011;4044;49.814;7.828;2023-06-22T14:06:53;11.80;;;5.65;;
7997;SDS011;4044;49.814;7.828;2023-06-22T14:09:20;8.40;;;5.63;;
7997;SDS011;4044;49.814;7.828;2023-06-22T14:11:46;12.07;;;5.78;;
7997;SDS011;4044;49.814;7.828;2023-06-22T14:14:11;13.18;;;5.30;;
7997;SDS011;4044;49.814;7.828;2023-06-22T14:16:37;12.05;;;5.63;;
7997;SDS011;4044;49.814;7.828;2023-06-22T14:19:02;11.27;;;5.25;;
7997;SDS011;4044;49.814;7.828;2023-06-22T14:21:28;10.68;;;5.35;;
7997;SDS011;4044;49.814;7.828;2023-06-22T14:23:53;13.32;;;5.68;;
7997;SDS011;4044;49.814;7.828;2023-06-22T14:26:19;10.85;;;5.90;;
7997;SDS011;4044;49.814;7.828;2023-06-22T14:28:45;11.25;;;5.72;;
7997;SDS011;4044;49.814;7.828;2023-06-22T14:31:17;11.95;;;5.72;;
7997;SDS011;4044;49.814;7.828;2023-06-22T14:33:45;13.23;;;5.50;;
7997;SDS011;4044;49.814;7.828;2023-06-22T14:36:12;13.98;;;5.55;;
7997;SDS011;4044;49.814;7.828;2023-06-22T14:38:37;13.82;;;6.05;;
7997;SDS011;4044;49.814;7.828;2023-06-22T14:41:04;11.85;;;5.30;;
7997;SDS011;4044;49.814;7.828;2023-06-22T14:43:30;11.95;;;5.60;;
7997;SDS011;4044;49.814;7.828;2023-06-22T14:45:55;17.38;;;5.68;;
7997;SDS011;4044;49.814;7.828;2023-06-22T14:48:21;10.80;;;5.90;;
7997;SDS011;4044;49.814;7.828;2023-06-22T14:50:47;16.45;;;6.00;;
7997;SDS011;4044;49.814;7.828;2023-06-22T14:53:12;13.68;;;5.53;;
7997;SDS011;4044;49.814;7.828;2023-06-22T14:55:39;10.30;;;5.47;;
7997;SDS011;4044;49.814;7.828;2023-06-22T14:58:05;13.63;;;5.38;;
7997;SDS011;4044;49.814;7.828;2023-06-22T15:00:30;10.23;;;4.70;;
7997;SDS011;4044;49.814;7.828;2023-06-22T15:02:56;11.68;;;4.95;;
7997;SDS011;4044;49.814;7.828;2023-06-22T15:05:22;11.30;;;5.18;;
7997;SDS011;4044;49.814;7.828;2023-06-22T15:07:49;11.63;;;5.30;;
7997;SDS011;4044;49.814;7.828;2023-06-22T15:10:14;11.30;;;4.82;;